sensor_id;sensor_type;location;lat;lon;timestamp;pressure;altitude;pressure_sealevel;temperature;humidity
29385;BME280;16367;48.736;9.218;2023-03-01T00:01:55;-23152.09;;;-0.51;84.43
29385;BME280;16367;48.736;9.218;2023-03-01T00:03:58;-23149.03;;;-0.60;84.85
29385;BME280;16367;48.736;9.218;2023-03-01T00:06:01;-23148.56;;;-0.62;84.68
29385;BME280;16367;48.736;9.218;2023-03-01T00:08:04;-23149.03;;;-0.60;84.90
29385;BME280;16367;48.736;9.218;2023-03-01T00:10:08;-23149.69;;;-0.58;84.72
29385;BME280;16367;48.736;9.218;2023-03-01T00:12:11;-23147.59;;;-0.65;85.31
29385;BME280;16367;48.736;9.218;2023-03-01T00:14:14;-23150.97;;;-0.54;85.22
29385;BME280;16367;48.736;9.218;2023-03-01T00:16:21;-23146.66;;;-0.68;85.67
29385;BME280;16367;48.736;9.218;2023-03-01T00:18:24;-23145.38;;;-0.72;85.73
29385;BME280;16367;48.736;9.218;2023-03-01T00:20:27;-23146.97;;;-0.67;85.80
29385;BME280;16367;48.736;9.218;2023-03-01T00:22:31;-23146.81;;;-0.67;86.19
29385;BME280;16367;48.736;9.218;2023-03-01T00:24:34;-23146.00;;;-0.70;85.98
29385;BME280;16367;48.736;9.218;2023-03-01T00:26:37;-23147.44;;;-0.65;85.94
29385;BME280;16367;48.736;9.218;2023-03-01T00:28:39;-23148.25;;;-0.63;85.74
29385;BME280;16367;48.736;9.218;2023-03-01T00:30:42;-23149.03;;;-0.60;85.94
29385;BME280;16367;48.736;9.218;2023-03-01T00:32:46;-23145.53;;;-0.71;86.18
29385;BME280;16367;48.736;9.218;2023-03-01T00:34:49;-23144.25;;;-0.76;86.35
29385;BME280;16367;48.736;9.218;2023-03-01T00:36:56;-23143.78;;;-0.77;86.49
29385;BME280;16367;48.736;9.218;2023-03-01T00:39:10;-23144.88;;;-0.73;86.50
29385;BME280;16367;48.736;9.218;2023-03-01T00:41:16;-23144.25;;;-0.76;86.61
29385;BME280;16367;48.736;9.218;2023-03-01T00:43:19;-23143.44;;;-0.78;86.71
29385;BME280;16367;48.736;9.218;2023-03-01T00:45:22;-23142.00;;;-0.83;87.01
29385;BME280;16367;48.736;9.218;2023-03-01T00:47:25;-23141.38;;;-0.85;87.20
29385;BME280;16367;48.736;9.218;2023-03-01T00:49:29;-23140.41;;;-0.88;87.32
29385;BME280;16367;48.736;9.218;2023-03-01T00:51:32;-23139.44;;;-0.91;87.39
29385;BME280;16367;48.736;9.218;2023-03-01T00:53:35;-23139.13;;;-0.92;87.58
29385;BME280;16367;48.736;9.218;2023-03-01T00:55:38;-23138.50;;;-0.94;87.79
29385;BME280;16367;48.736;9.218;2023-03-01T00:57:40;-23137.38;;;-0.97;87.77
29385;BME280;16367;48.736;9.218;2023-03-01T00:59:43;-23138.97;;;-0.92;88.03
29385;BME280;16367;48.736;9.218;2023-03-01T01:01:46;-23138.81;;;-0.93;87.70
29385;BME280;16367;48.736;9.218;2023-03-01T01:03:50;-23139.78;;;-0.90;87.82
29385;BME280;16367;48.736;9.218;2023-03-01T01:05:55;-23137.84;;;-0.96;87.71
29385;BME280;16367;48.736;9.218;2023-03-01T01:07:57;-23138.00;;;-0.95;88.16
29385;BME280;16367;48.736;9.218;2023-03-01T01:10:00;-23137.06;;;-0.98;88.31
29385;BME280;16367;48.736;9.218;2023-03-01T01:12:03;-23135.28;;;-1.04;88.61
29385;BME280;16367;48.736;9.218;2023-03-01T01:14:06;-23134.97;;;-1.05;88.90
29385;BME280;16367;48.736;9.218;2023-03-01T01:16:09;-23136.41;;;-1.00;89.37
29385;BME280;16367;48.736;9.218;2023-03-01T01:18:11;-23134.97;;;-1.05;89.17
29385;BME280;16367;48.736;9.218;2023-03-01T01:20:14;-23134.66;;;-1.06;89.28
29385;BME280;16367;48.736;9.218;2023-03-01T01:22:18;-23133.53;;;-1.09;89.65
29385;BME280;16367;48.736;9.218;2023-03-01T01:24:21;-23132.25;;;-1.13;89.86
29385;BME280;16367;48.736;9.218;2023-03-01T01:26:26;-23132.41;;;-1.13;90.30
29385;BME280;16367;48.736;9.218;2023-03-01T01:28:30;-23133.38;;;-1.10;90.30
29385;BME280;16367;48.736;9.218;2023-03-01T01:30:33;-23130.81;;;-1.18;90.16
29385;BME280;16367;48.736;9.218;2023-03-01T01:32:35;-23130.34;;;-1.19;90.26
29385;BME280;16367;48.736;9.218;2023-03-01T01:34:38;-23128.41;;;-1.25;90.41
29385;BME280;16367;48.736;9.218;2023-03-01T01:36:42;-23128.56;;;-1.25;90.79
29385;BME280;16367;48.736;9.218;2023-03-01T01:38:46;-23126.66;;;-1.31;90.99
29385;BME280;16367;48.736;9.218;2023-03-01T01:40:49;-23129.22;;;-1.23;90.60
29385;BME280;16367;48.736;9.218;2023-03-01T01:42:52;-23131.31;;;-1.16;90.28
29385;BME280;16367;48.736;9.218;2023-03-01T01:45:31;-23129.84;;;-1.21;90.90
29385;BME280;16367;48.736;9.218;2023-03-01T01:47:34;-23130.66;;;-1.18;90.82
29385;BME280;16367;48.736;9.218;2023-03-01T01:49:40;-23133.69;;;-1.09;90.93
29385;BME280;16367;48.736;9.218;2023-03-01T01:51:46;-23132.72;;;-1.12;90.63
29385;BME280;16367;48.736;9.218;2023-03-01T01:53:54;-23136.25;;;-1.01;90.34
29385;BME280;16367;48.736;9.218;2023-03-01T01:56:00;-23137.22;;;-0.98;90.22
29385;BME280;16367;48.736;9.218;2023-03-01T01:58:05;-23137.84;;;-0.96;89.78
29385;BME280;16367;48.736;9.218;2023-03-01T02:00:12;-23137.84;;;-0.96;90.05
29385;BME280;16367;48.736;9.218;2023-03-01T02:02:15;-23139.63;;;-0.90;89.71
29385;BME280;16367;48.736;9.218;2023-03-01T02:04:18;-23142.00;;;-0.83;89.40
29385;BME280;16367;48.736;9.218;2023-03-01T02:06:26;-23142.81;;;-0.80;89.32
29385;BME280;16367;48.736;9.218;2023-03-01T02:08:33;-23140.91;;;-0.86;89.14
29385;BME280;16367;48.736;9.218;2023-03-01T02:10:39;-23142.34;;;-0.82;89.11
29385;BME280;16367;48.736;9.218;2023-03-01T02:12:42;-23142.00;;;-0.83;88.83
29385;BME280;16367;48.736;9.218;2023-03-01T02:14:45;-23141.53;;;-0.84;89.10
29385;BME280;16367;48.736;9.218;2023-03-01T02:16:48;-23142.00;;;-0.83;89.02
29385;BME280;16367;48.736;9.218;2023-03-01T02:18:52;-23141.38;;;-0.85;88.75
29385;BME280;16367;48.736;9.218;2023-03-01T02:21:05;-23142.97;;;-0.80;89.06
29385;BME280;16367;48.736;9.218;2023-03-01T02:23:11;-23143.59;;;-0.78;88.87
29385;BME280;16367;48.736;9.218;2023-03-01T02:25:24;-23144.88;;;-0.73;88.64
29385;BME280;16367;48.736;9.218;2023-03-01T02:27:33;-23144.25;;;-0.76;88.44
29385;BME280;16367;48.736;9.218;2023-03-01T02:29:40;-23145.53;;;-0.71;88.22
29385;BME280;16367;48.736;9.218;2023-03-01T02:31:45;-23146.50;;;-0.68;88.09
29385;BME280;16367;48.736;9.218;2023-03-01T02:33:47;-23146.81;;;-0.67;88.19
29385;BME280;16367;48.736;9.218;2023-03-01T02:35:51;-23144.88;;;-0.73;88.34
29385;BME280;16367;48.736;9.218;2023-03-01T02:37:55;-23143.59;;;-0.78;88.50
29385;BME280;16367;48.736;9.218;2023-03-01T02:40:02;-23143.59;;;-0.78;89.00
29385;BME280;16367;48.736;9.218;2023-03-01T02:42:07;-23143.59;;;-0.78;88.74
29385;BME280;16367;48.736;9.218;2023-03-01T02:44:12;-23144.25;;;-0.76;88.89
29385;BME280;16367;48.736;9.218;2023-03-01T02:46:17;-23144.56;;;-0.75;88.71
29385;BME280;16367;48.736;9.218;2023-03-01T02:48:21;-23144.25;;;-0.76;88.56
29385;BME280;16367;48.736;9.218;2023-03-01T02:50:45;-23143.28;;;-0.79;88.69
29385;BME280;16367;48.736;9.218;2023-03-01T02:52:56;-23143.44;;;-0.78;88.81
29385;BME280;16367;48.736;9.218;2023-03-01T02:55:03;-23142.66;;;-0.81;89.18
29385;BME280;16367;48.736;9.218;2023-03-01T02:57:08;-23142.97;;;-0.80;89.60
29385;BME280;16367;48.736;9.218;2023-03-01T02:59:11;-23143.28;;;-0.79;89.20
29385;BME280;16367;48.736;9.218;2023-03-01T03:01:15;-23141.84;;;-0.83;89.15
29385;BME280;16367;48.736;9.218;2023-03-01T03:03:20;-23141.38;;;-0.85;89.74
29385;BME280;16367;48.736;9.218;2023-03-01T03:05:25;-23143.59;;;-0.78;89.59
29385;BME280;16367;48.736;9.218;2023-03-01T03:07:28;-23146.16;;;-0.69;89.41
29385;BME280;16367;48.736;9.218;2023-03-01T03:09:31;-23145.84;;;-0.70;89.02
29385;BME280;16367;48.736;9.218;2023-03-01T03:11:33;-23144.88;;;-0.73;89.11
29385;BME280;16367;48.736;9.218;2023-03-01T03:13:38;-23144.56;;;-0.75;89.29
29385;BME280;16367;48.736;9.218;2023-03-01T03:15:49;-23142.50;;;-0.81;89.09
29385;BME280;16367;48.736;9.218;2023-03-01T03:17:54;-23145.84;;;-0.70;89.13
29385;BME280;16367;48.736;9.218;2023-03-01T03:19:56;-23144.72;;;-0.74;89.08
29385;BME280;16367;48.736;9.218;2023-03-01T03:21:59;-23143.59;;;-0.78;89.21
29385;BME280;16367;48.736;9.218;2023-03-01T03:24:03;-23144.88;;;-0.73;89.03
29385;BME280;16367;48.736;9.218;2023-03-01T03:26:06;-23145.69;;;-0.71;89.47
29385;BME280;16367;48.736;9.218;2023-03-01T03:28:09;-23143.59;;;-0.78;89.25
29385;BME280;16367;48.736;9.218;2023-03-01T03:30:14;-23144.25;;;-0.76;89.76
29385;BME280;16367;48.736;9.218;2023-03-01T03:32:17;-23144.56;;;-0.75;89.57
29385;BME280;16367;48.736;9.218;2023-03-01T03:34:21;-23144.25;;;-0.76;89.64
29385;BME280;16367;48.736;9.218;2023-03-01T03:36:24;-23142.97;;;-0.80;89.96
29385;BME280;16367;48.736;9.218;2023-03-01T03:38:27;-23145.22;;;-0.72;89.72
29385;BME280;16367;48.736;9.218;2023-03-01T03:40:32;-23143.28;;;-0.79;89.66
29385;BME280;16367;48.736;9.218;2023-03-01T03:42:35;-23143.78;;;-0.77;89.56
29385;BME280;16367;48.736;9.218;2023-03-01T03:44:38;-23142.16;;;-0.82;90.21
29385;BME280;16367;48.736;9.218;2023-03-01T03:46:41;-23143.28;;;-0.79;90.25
29385;BME280;16367;48.736;9.218;2023-03-01T03:48:44;-23143.59;;;-0.78;90.46
29385;BME280;16367;48.736;9.218;2023-03-01T03:50:50;-23145.06;;;-0.73;90.05
29385;BME280;16367;48.736;9.218;2023-03-01T03:52:53;-23144.56;;;-0.75;89.95
29385;BME280;16367;48.736;9.218;2023-03-01T03:54:56;-23142.66;;;-0.81;90.70
29385;BME280;16367;48.736;9.218;2023-03-01T03:56:59;-23143.13;;;-0.79;90.52
29385;BME280;16367;48.736;9.218;2023-03-01T03:59:01;-23146.16;;;-0.69;90.48
29385;BME280;16367;48.736;9.218;2023-03-01T04:01:04;-23143.94;;;-0.77;90.14
29385;BME280;16367;48.736;9.218;2023-03-01T04:03:08;-23145.84;;;-0.70;90.19
29385;BME280;16367;48.736;9.218;2023-03-01T04:05:13;-23143.94;;;-0.77;90.52
29385;BME280;16367;48.736;9.218;2023-03-01T04:07:17;-23145.53;;;-0.71;90.29
29385;BME280;16367;48.736;9.218;2023-03-01T04:09:20;-23143.13;;;-0.79;90.34
29385;BME280;16367;48.736;9.218;2023-03-01T04:11:23;-23144.72;;;-0.74;90.53
29385;BME280;16367;48.736;9.218;2023-03-01T04:13:28;-23142.66;;;-0.81;90.62
29385;BME280;16367;48.736;9.218;2023-03-01T04:15:31;-23143.13;;;-0.79;90.85
29385;BME280;16367;48.736;9.218;2023-03-01T04:17:34;-23145.22;;;-0.72;90.97
29385;BME280;16367;48.736;9.218;2023-03-01T04:19:37;-23143.94;;;-0.77;90.59
29385;BME280;16367;48.736;9.218;2023-03-01T04:21:40;-23146.97;;;-0.67;90.57
29385;BME280;16367;48.736;9.218;2023-03-01T04:23:44;-23143.59;;;-0.78;90.60
29385;BME280;16367;48.736;9.218;2023-03-01T04:25:48;-23143.28;;;-0.79;90.93
29385;BME280;16367;48.736;9.218;2023-03-01T04:27:55;-23143.28;;;-0.79;90.84
29385;BME280;16367;48.736;9.218;2023-03-01T04:29:58;-23141.06;;;-0.86;90.81
29385;BME280;16367;48.736;9.218;2023-03-01T04:32:00;-23144.09;;;-0.76;90.82
29385;BME280;16367;48.736;9.218;2023-03-01T04:34:04;-23144.25;;;-0.76;91.04
29385;BME280;16367;48.736;9.218;2023-03-01T04:36:08;-23144.25;;;-0.76;90.86
29385;BME280;16367;48.736;9.218;2023-03-01T04:38:11;-23145.84;;;-0.70;90.99
29385;BME280;16367;48.736;9.218;2023-03-01T04:40:16;-23143.94;;;-0.77;90.93
29385;BME280;16367;48.736;9.218;2023-03-01T04:42:18;-23143.94;;;-0.77;91.07
29385;BME280;16367;48.736;9.218;2023-03-01T04:44:21;-23146.97;;;-0.67;91.03
29385;BME280;16367;48.736;9.218;2023-03-01T04:46:24;-23148.09;;;-0.63;90.73
29385;BME280;16367;48.736;9.218;2023-03-01T04:48:27;-23145.84;;;-0.70;90.89
29385;BME280;16367;48.736;9.218;2023-03-01T04:50:31;-23147.75;;;-0.64;91.05
29385;BME280;16367;48.736;9.218;2023-03-01T04:52:34;-23147.13;;;-0.66;90.52
29385;BME280;16367;48.736;9.218;2023-03-01T04:54:37;-23145.22;;;-0.72;91.07
29385;BME280;16367;48.736;9.218;2023-03-01T04:56:41;-23145.69;;;-0.71;90.93
29385;BME280;16367;48.736;9.218;2023-03-01T04:58:44;-23146.81;;;-0.67;90.81
29385;BME280;16367;48.736;9.218;2023-03-01T05:00:47;-23144.88;;;-0.73;91.01
29385;BME280;16367;48.736;9.218;2023-03-01T05:03:15;-23144.88;;;-0.73;91.03
29385;BME280;16367;48.736;9.218;2023-03-01T05:05:21;-23142.81;;;-0.80;91.70
29385;BME280;16367;48.736;9.218;2023-03-01T05:07:27;-23144.88;;;-0.73;91.37
29385;BME280;16367;48.736;9.218;2023-03-01T05:09:29;-23145.53;;;-0.71;91.80
29385;BME280;16367;48.736;9.218;2023-03-01T05:11:32;-23146.50;;;-0.68;91.49
29385;BME280;16367;48.736;9.218;2023-03-01T05:13:39;-23145.53;;;-0.71;91.21
29385;BME280;16367;48.736;9.218;2023-03-01T05:15:42;-23145.69;;;-0.71;91.33
29385;BME280;16367;48.736;9.218;2023-03-01T05:17:45;-23147.44;;;-0.65;91.35
29385;BME280;16367;48.736;9.218;2023-03-01T05:19:48;-23145.53;;;-0.71;91.89
29385;BME280;16367;48.736;9.218;2023-03-01T05:21:51;-23143.13;;;-0.79;91.96
29385;BME280;16367;48.736;9.218;2023-03-01T05:24:07;-23144.88;;;-0.73;92.06
29385;BME280;16367;48.736;9.218;2023-03-01T05:26:13;-23144.72;;;-0.74;92.10
29385;BME280;16367;48.736;9.218;2023-03-01T05:28:36;-23145.69;;;-0.71;92.23
29385;BME280;16367;48.736;9.218;2023-03-01T05:30:42;-23148.41;;;-0.62;91.78
29385;BME280;16367;48.736;9.218;2023-03-01T05:32:47;-23144.56;;;-0.75;91.96
29385;BME280;16367;48.736;9.218;2023-03-01T05:34:50;-23144.88;;;-0.73;92.04
29385;BME280;16367;48.736;9.218;2023-03-01T05:36:54;-23146.66;;;-0.68;92.02
29385;BME280;16367;48.736;9.218;2023-03-01T05:38:56;-23150.16;;;-0.57;91.54
29385;BME280;16367;48.736;9.218;2023-03-01T05:40:59;-23147.94;;;-0.64;91.37
29385;BME280;16367;48.736;9.218;2023-03-01T05:43:02;-23150.31;;;-0.56;91.52
29385;BME280;16367;48.736;9.218;2023-03-01T05:45:07;-23148.41;;;-0.62;91.59
29385;BME280;16367;48.736;9.218;2023-03-01T05:47:12;-23145.22;;;-0.72;92.14
29385;BME280;16367;48.736;9.218;2023-03-01T05:49:15;-23147.59;;;-0.65;91.88
29385;BME280;16367;48.736;9.218;2023-03-01T05:51:18;-23148.88;;;-0.61;91.80
29385;BME280;16367;48.736;9.218;2023-03-01T05:53:21;-23145.84;;;-0.70;92.08
29385;BME280;16367;48.736;9.218;2023-03-01T05:55:24;-23146.97;;;-0.67;91.66
29385;BME280;16367;48.736;9.218;2023-03-01T05:57:29;-23148.09;;;-0.63;92.08
29385;BME280;16367;48.736;9.218;2023-03-01T05:59:32;-23148.09;;;-0.63;92.10
29385;BME280;16367;48.736;9.218;2023-03-01T06:01:35;-23147.13;;;-0.66;91.72
29385;BME280;16367;48.736;9.218;2023-03-01T06:03:39;-23149.53;;;-0.59;91.77
29385;BME280;16367;48.736;9.218;2023-03-01T06:05:42;-23146.97;;;-0.67;92.01
29385;BME280;16367;48.736;9.218;2023-03-01T06:07:45;-23147.94;;;-0.64;92.20
29385;BME280;16367;48.736;9.218;2023-03-01T06:09:48;-23146.50;;;-0.68;92.15
29385;BME280;16367;48.736;9.218;2023-03-01T06:11:50;-23148.25;;;-0.63;92.51
29385;BME280;16367;48.736;9.218;2023-03-01T06:13:53;-23147.44;;;-0.65;92.61
29385;BME280;16367;48.736;9.218;2023-03-01T06:15:56;-23148.09;;;-0.63;92.48
29385;BME280;16367;48.736;9.218;2023-03-01T06:17:58;-23148.41;;;-0.62;92.02
29385;BME280;16367;48.736;9.218;2023-03-01T06:20:03;-23151.75;;;-0.52;92.39
29385;BME280;16367;48.736;9.218;2023-03-01T06:22:06;-23152.25;;;-0.50;91.54
29385;BME280;16367;48.736;9.218;2023-03-01T06:24:09;-23149.38;;;-0.59;91.66
29385;BME280;16367;48.736;9.218;2023-03-01T06:26:12;-23152.88;;;-0.48;91.67
29385;BME280;16367;48.736;9.218;2023-03-01T06:28:15;-23150.81;;;-0.55;91.65
29385;BME280;16367;48.736;9.218;2023-03-01T06:30:20;-23149.84;;;-0.58;91.68
29385;BME280;16367;48.736;9.218;2023-03-01T06:32:23;-23150.31;;;-0.56;91.38
29385;BME280;16367;48.736;9.218;2023-03-01T06:34:25;-23153.53;;;-0.46;91.93
29385;BME280;16367;48.736;9.218;2023-03-01T06:36:29;-23151.44;;;-0.53;91.84
29385;BME280;16367;48.736;9.218;2023-03-01T06:38:33;-23152.88;;;-0.48;91.83
29385;BME280;16367;48.736;9.218;2023-03-01T06:40:35;-23151.59;;;-0.52;91.79
29385;BME280;16367;48.736;9.218;2023-03-01T06:42:40;-23151.75;;;-0.52;91.87
29385;BME280;16367;48.736;9.218;2023-03-01T06:44:44;-23155.59;;;-0.40;91.38
29385;BME280;16367;48.736;9.218;2023-03-01T06:46:47;-23157.34;;;-0.34;91.58
29385;BME280;16367;48.736;9.218;2023-03-01T06:48:49;-23154.47;;;-0.43;91.80
29385;BME280;16367;48.736;9.218;2023-03-01T06:50:53;-23156.72;;;-0.36;92.12
29385;BME280;16367;48.736;9.218;2023-03-01T06:52:58;-23153.19;;;-0.47;92.48
29385;BME280;16367;48.736;9.218;2023-03-01T06:55:01;-23154.63;;;-0.43;92.51
29385;BME280;16367;48.736;9.218;2023-03-01T06:57:04;-23151.28;;;-0.53;92.69
29385;BME280;16367;48.736;9.218;2023-03-01T06:59:07;-23148.09;;;-0.63;93.09
29385;BME280;16367;48.736;9.218;2023-03-01T07:01:09;-23150.97;;;-0.54;92.68
29385;BME280;16367;48.736;9.218;2023-03-01T07:03:12;-23154.00;;;-0.45;92.40
29385;BME280;16367;48.736;9.218;2023-03-01T07:05:15;-23144.88;;;-0.73;93.11
29385;BME280;16367;48.736;9.218;2023-03-01T07:07:18;-23146.66;;;-0.68;93.35
29385;BME280;16367;48.736;9.218;2023-03-01T07:09:22;-23146.16;;;-0.69;93.85
29385;BME280;16367;48.736;9.218;2023-03-01T07:11:25;-23148.09;;;-0.63;93.29
29385;BME280;16367;48.736;9.218;2023-03-01T07:13:28;-23147.28;;;-0.66;93.07
29385;BME280;16367;48.736;9.218;2023-03-01T07:15:31;-23145.22;;;-0.72;93.40
29385;BME280;16367;48.736;9.218;2023-03-01T07:17:34;-23145.53;;;-0.71;93.27
29385;BME280;16367;48.736;9.218;2023-03-01T07:19:36;-23145.22;;;-0.72;93.78
29385;BME280;16367;48.736;9.218;2023-03-01T07:21:39;-23143.28;;;-0.79;93.80
29385;BME280;16367;48.736;9.218;2023-03-01T07:23:42;-23149.38;;;-0.59;93.54
29385;BME280;16367;48.736;9.218;2023-03-01T07:25:52;-23150.97;;;-0.54;92.93
29385;BME280;16367;48.736;9.218;2023-03-01T07:27:55;-23146.00;;;-0.70;93.19
29385;BME280;16367;48.736;9.218;2023-03-01T07:29:58;-23149.03;;;-0.60;92.78
29385;BME280;16367;48.736;9.218;2023-03-01T07:32:00;-23152.41;;;-0.50;92.82
29385;BME280;16367;48.736;9.218;2023-03-01T07:34:03;-23150.16;;;-0.57;92.81
29385;BME280;16367;48.736;9.218;2023-03-01T07:36:06;-23151.59;;;-0.52;92.76
29385;BME280;16367;48.736;9.218;2023-03-01T07:38:09;-23153.84;;;-0.45;92.48
29385;BME280;16367;48.736;9.218;2023-03-01T07:40:12;-23153.84;;;-0.45;91.81
29385;BME280;16367;48.736;9.218;2023-03-01T07:42:16;-23152.88;;;-0.48;92.12
29385;BME280;16367;48.736;9.218;2023-03-01T07:44:19;-23159.44;;;-0.28;91.73
29385;BME280;16367;48.736;9.218;2023-03-01T07:46:22;-23158.63;;;-0.30;91.38
29385;BME280;16367;48.736;9.218;2023-03-01T07:48:25;-23181.16;;;0.41;89.06
29385;BME280;16367;48.736;9.218;2023-03-01T07:50:27;-23189.78;;;0.68;85.39
29385;BME280;16367;48.736;9.218;2023-03-01T07:52:30;-23181.00;;;0.40;85.07
29385;BME280;16367;48.736;9.218;2023-03-01T07:54:33;-23188.34;;;0.63;85.09
29385;BME280;16367;48.736;9.218;2023-03-01T07:56:36;-23207.84;;;1.25;83.11
29385;BME280;16367;48.736;9.218;2023-03-01T07:58:41;-23206.72;;;1.21;82.50
29385;BME280;16367;48.736;9.218;2023-03-01T08:00:44;-23194.25;;;0.82;82.01
29385;BME280;16367;48.736;9.218;2023-03-01T08:02:47;-23200.00;;;1.00;81.32
29385;BME280;16367;48.736;9.218;2023-03-01T08:04:49;-23202.88;;;1.09;81.04
29385;BME280;16367;48.736;9.218;2023-03-01T08:06:52;-23201.28;;;1.04;80.89
29385;BME280;16367;48.736;9.218;2023-03-01T08:08:55;-23208.31;;;1.26;80.61
29385;BME280;16367;48.736;9.218;2023-03-01T08:11:01;-23198.41;;;0.95;81.03
29385;BME280;16367;48.736;9.218;2023-03-01T08:13:04;-23211.03;;;1.35;79.38
29385;BME280;16367;48.736;9.218;2023-03-01T08:15:09;-23220.44;;;1.65;77.93
29385;BME280;16367;48.736;9.218;2023-03-01T08:17:13;-23232.72;;;2.03;75.64
29385;BME280;16367;48.736;9.218;2023-03-01T08:19:16;-23233.38;;;2.05;75.57
29385;BME280;16367;48.736;9.218;2023-03-01T08:21:19;-23217.09;;;1.54;77.45
29385;BME280;16367;48.736;9.218;2023-03-01T08:23:21;-23232.72;;;2.03;76.64
29385;BME280;16367;48.736;9.218;2023-03-01T08:25:24;-23219.16;;;1.61;76.61
29385;BME280;16367;48.736;9.218;2023-03-01T08:27:27;-23221.72;;;1.69;77.76
29385;BME280;16367;48.736;9.218;2023-03-01T08:29:30;-23219.81;;;1.63;77.43
29385;BME280;16367;48.736;9.218;2023-03-01T08:31:36;-23250.44;;;2.59;74.51
29385;BME280;16367;48.736;9.218;2023-03-01T08:33:39;-23235.75;;;2.13;74.87
29385;BME280;16367;48.736;9.218;2023-03-01T08:35:42;-23276.75;;;3.42;69.96
29385;BME280;16367;48.736;9.218;2023-03-01T08:37:45;-23257.63;;;2.82;70.98
29385;BME280;16367;48.736;9.218;2023-03-01T08:39:48;-23295.38;;;4.01;68.37
29385;BME280;16367;48.736;9.218;2023-03-01T08:41:50;-23314.81;;;4.63;65.95
29385;BME280;16367;48.736;9.218;2023-03-01T08:43:53;-23297.63;;;4.08;66.45
29385;BME280;16367;48.736;9.218;2023-03-01T08:46:00;-23321.34;;;4.83;64.33
29385;BME280;16367;48.736;9.218;2023-03-01T08:48:04;-23297.94;;;4.09;66.44
29385;BME280;16367;48.736;9.218;2023-03-01T08:50:08;-23286.94;;;3.74;67.54
29385;BME280;16367;48.736;9.218;2023-03-01T08:52:11;-23280.88;;;3.55;67.29
29385;BME280;16367;48.736;9.218;2023-03-01T08:54:15;-23304.63;;;4.30;64.74
29385;BME280;16367;48.736;9.218;2023-03-01T08:56:20;-23315.13;;;4.64;64.17
29385;BME280;16367;48.736;9.218;2023-03-01T08:58:23;-23293.00;;;3.94;65.62
29385;BME280;16367;48.736;9.218;2023-03-01T09:00:26;-23321.19;;;4.83;63.60
29385;BME280;16367;48.736;9.218;2023-03-01T09:02:29;-23288.38;;;3.79;65.55
29385;BME280;16367;48.736;9.218;2023-03-01T09:04:33;-23326.75;;;5.00;61.24
29385;BME280;16367;48.736;9.218;2023-03-01T09:06:36;-23382.13;;;6.75;58.23
29385;BME280;16367;48.736;9.218;2023-03-01T09:08:41;-23330.25;;;5.11;61.29
29385;BME280;16367;48.736;9.218;2023-03-01T09:10:44;-23295.88;;;4.03;62.79
29385;BME280;16367;48.736;9.218;2023-03-01T09:12:47;-23293.47;;;3.95;63.38
29385;BME280;16367;48.736;9.218;2023-03-01T09:14:50;-23345.84;;;5.61;61.41
29385;BME280;16367;48.736;9.218;2023-03-01T09:16:52;-23332.66;;;5.19;61.58
29385;BME280;16367;48.736;9.218;2023-03-01T09:18:55;-23340.13;;;5.43;59.11
29385;BME280;16367;48.736;9.218;2023-03-01T09:21:03;-23337.25;;;5.34;60.18
29385;BME280;16367;48.736;9.218;2023-03-01T09:23:08;-23362.25;;;6.13;59.01
29385;BME280;16367;48.736;9.218;2023-03-01T09:25:11;-23332.47;;;5.18;59.33
29385;BME280;16367;48.736;9.218;2023-03-01T09:27:14;-23364.31;;;6.19;57.27
29385;BME280;16367;48.736;9.218;2023-03-01T09:29:20;-23380.69;;;6.71;55.63
29385;BME280;16367;48.736;9.218;2023-03-01T09:31:23;-23342.19;;;5.49;60.03
29385;BME280;16367;48.736;9.218;2023-03-01T09:33:27;-23387.53;;;6.93;55.49
29385;BME280;16367;48.736;9.218;2023-03-01T09:35:30;-23396.09;;;7.20;54.61
29385;BME280;16367;48.736;9.218;2023-03-01T09:37:35;-23414.53;;;7.78;54.43
29385;BME280;16367;48.736;9.218;2023-03-01T09:39:38;-23430.09;;;8.27;51.59
29385;BME280;16367;48.736;9.218;2023-03-01T09:41:47;-23483.72;;;9.98;48.64
29385;BME280;16367;48.736;9.218;2023-03-01T09:43:52;-23427.53;;;8.19;50.47
29385;BME280;16367;48.736;9.218;2023-03-01T09:46:03;-23420.56;;;7.97;51.46
29385;BME280;16367;48.736;9.218;2023-03-01T09:48:13;-23384.34;;;6.83;53.87
29385;BME280;16367;48.736;9.218;2023-03-01T09:50:19;-23363.50;;;6.17;55.46
29385;BME280;16367;48.736;9.218;2023-03-01T09:52:26;-23396.25;;;7.20;54.38
29385;BME280;16367;48.736;9.218;2023-03-01T09:54:32;-23407.22;;;7.55;53.08
29385;BME280;16367;48.736;9.218;2023-03-01T09:56:39;-23359.84;;;6.05;55.18
29385;BME280;16367;48.736;9.218;2023-03-01T09:58:47;-23369.41;;;6.35;55.59
29385;BME280;16367;48.736;9.218;2023-03-01T10:00:56;-23355.41;;;5.91;54.78
29385;BME280;16367;48.736;9.218;2023-03-01T10:03:04;-23449.94;;;8.90;50.58
29385;BME280;16367;48.736;9.218;2023-03-01T10:05:41;-23411.97;;;7.70;52.92
29385;BME280;16367;48.736;9.218;2023-03-01T10:07:52;-23419.28;;;7.93;50.66
29385;BME280;16367;48.736;9.218;2023-03-01T10:09:58;-23390.38;;;7.02;54.49
29385;BME280;16367;48.736;9.218;2023-03-01T10:12:04;-23402.78;;;7.41;52.70
29385;BME280;16367;48.736;9.218;2023-03-01T10:14:20;-23393.88;;;7.13;53.26
29385;BME280;16367;48.736;9.218;2023-03-01T10:16:40;-23366.53;;;6.26;55.50
29385;BME280;16367;48.736;9.218;2023-03-01T10:18:46;-23364.00;;;6.18;55.50
29385;BME280;16367;48.736;9.218;2023-03-01T10:20:53;-23395.94;;;7.19;54.06
29385;BME280;16367;48.736;9.218;2023-03-01T10:22:57;-23420.25;;;7.96;52.70
29385;BME280;16367;48.736;9.218;2023-03-01T10:25:03;-23407.84;;;7.57;53.02
29385;BME280;16367;48.736;9.218;2023-03-01T10:27:09;-23349.81;;;5.73;55.19
29385;BME280;16367;48.736;9.218;2023-03-01T10:29:15;-23407.84;;;7.57;54.23
29385;BME280;16367;48.736;9.218;2023-03-01T10:31:20;-23403.72;;;7.44;52.30
29385;BME280;16367;48.736;9.218;2023-03-01T10:33:31;-23405.94;;;7.51;51.82
29385;BME280;16367;48.736;9.218;2023-03-01T10:35:35;-23412.94;;;7.73;51.32
29385;BME280;16367;48.736;9.218;2023-03-01T10:37:56;-23403.09;;;7.42;53.33
29385;BME280;16367;48.736;9.218;2023-03-01T10:40:02;-23384.97;;;6.85;54.63
29385;BME280;16367;48.736;9.218;2023-03-01T10:42:19;-23448.03;;;8.84;50.90
29385;BME280;16367;48.736;9.218;2023-03-01T10:44:43;-23407.53;;;7.56;51.50
29385;BME280;16367;48.736;9.218;2023-03-01T10:46:58;-23361.75;;;6.11;53.82
29385;BME280;16367;48.736;9.218;2023-03-01T10:49:07;-23375.59;;;6.55;55.23
29385;BME280;16367;48.736;9.218;2023-03-01T10:51:17;-23399.28;;;7.30;53.23
29385;BME280;16367;48.736;9.218;2023-03-01T10:53:24;-23393.22;;;7.11;53.79
29385;BME280;16367;48.736;9.218;2023-03-01T10:55:33;-23421.81;;;8.01;52.27